Time;durP1;ratioP1;P1;durP2;ratioP2;P2;SDS_P1;SDS_P2;PMS_P1;PMS_P2;Temp;Humidity;BMP_temperature;BMP_pressure;BME280_temperature;BME280_humidity;BME280_pressure;Samples;Min_cycle;Max_cycle;Signal;HPM_P1;HPM_P2
2021/08/13 00:01:51;;;;;;;8.43;7.60;;;22.00;71.50;;;;;;10419437;28;20032;-56
2021/08/13 00:06:52;;;;;;;8.90;7.78;;;22.00;71.70;;;;;;10419082;28;20443;-56
2021/08/13 00:11:54;;;;;;;8.00;7.20;;;22.00;71.80;;;;;;10418211;28;20037;-56
2021/08/13 00:16:55;;;;;;;9.13;7.38;;;22.00;71.60;;;;;;10417470;28;20466;-56
2021/08/13 00:21:55;;;;;;;8.45;7.47;;;22.00;71.70;;;;;;10417038;28;20113;-55
2021/08/13 00:26:56;;;;;;;7.93;7.13;;;22.00;71.70;;;;;;10417027;28;20099;-56
2021/08/13 00:31:57;;;;;;;7.65;6.85;;;22.00;71.60;;;;;;10417700;28;20489;-56
2021/08/13 00:36:57;;;;;;;9.32;7.65;;;22.00;71.70;;;;;;10418176;28;20053;-56
2021/08/13 00:41:58;;;;;;;8.50;7.63;;;22.00;71.60;;;;;;10417404;28;20517;-56
2021/08/13 00:46:59;;;;;;;7.28;6.55;;;22.00;71.60;;;;;;10404410;28;20030;-56
2021/08/13 00:52:00;;;;;;;7.68;6.90;;;22.00;71.50;;;;;;10417130;28;20061;-55
2021/08/13 00:57:01;;;;;;;7.85;7.15;;;22.00;71.70;;;;;;10416807;28;20025;-56
2021/08/13 01:02:02;;;;;;;7.97;7.18;;;22.00;71.70;;;;;;10416752;28;20034;-56
2021/08/13 01:07:04;;;;;;;9.73;8.07;;;22.00;71.70;;;;;;10416841;28;20034;-56
2021/08/13 01:12:31;;;;;;;8.43;7.53;;;22.00;71.60;;;;;;10402702;28;20033;-56
2021/08/13 01:18:05;;;;;;;7.93;7.13;;;22.00;71.60;;;;;;10422553;28;20025;-56
2021/08/13 01:23:23;;;;;;;6.93;6.25;;;21.90;71.40;;;;;;10431013;28;20046;-56
2021/08/13 01:29:01;;;;;;;7.80;6.93;;;22.00;71.40;;;;;;10415553;28;20485;-56
2021/08/13 01:34:06;;;;;;;8.00;7.25;;;22.00;72.90;;;;;;10415601;28;20367;-56
2021/08/13 01:39:07;;;;;;;8.60;7.50;;;22.00;74.50;;;;;;10414779;28;20053;-55
2021/08/13 01:44:10;;;;;;;8.27;7.50;;;22.10;74.60;;;;;;10430786;28;20084;-55
2021/08/13 01:49:13;;;;;;;8.63;7.00;;;22.10;74.20;;;;;;10430532;28;20029;-56
2021/08/13 01:54:14;;;;;;;8.32;7.53;;;22.00;74.00;;;;;;10430219;28;20025;-56
2021/08/13 01:59:16;;;;;;;9.15;7.68;;;22.10;73.90;;;;;;10417562;28;20386;-56
2021/08/13 02:04:20;;;;;;;8.10;7.30;;;22.00;73.70;;;;;;10414771;28;20028;-56
2021/08/13 02:09:22;;;;;;;8.27;7.47;;;22.00;73.60;;;;;;10414197;28;20113;-56
2021/08/13 02:14:23;;;;;;;9.48;7.30;;;22.00;73.50;;;;;;10402952;28;20029;-56
2021/08/13 02:19:40;;;;;;;9.52;7.60;;;22.00;73.00;;;;;;10421909;28;20041;-56
2021/08/13 02:24:40;;;;;;;7.47;6.78;;;22.00;73.20;;;;;;10414157;28;20489;-56
2021/08/13 02:29:41;;;;;;;8.05;7.22;;;22.00;73.20;;;;;;10413165;28;20104;-56
2021/08/13 02:34:43;;;;;;;7.95;7.15;;;22.00;73.00;;;;;;10414097;28;20485;-56
2021/08/13 02:40:10;;;;;;;8.13;7.32;;;22.00;72.90;;;;;;10417656;28;20375;-56
2021/08/13 02:45:17;;;;;;;7.57;6.88;;;22.00;72.60;;;;;;10421868;28;20033;-56
2021/08/13 02:50:19;;;;;;;8.18;7.38;;;22.00;72.50;;;;;;10422102;28;20374;-56
2021/08/13 02:55:33;;;;;;;8.55;7.22;;;21.90;72.10;;;;;;10420385;28;20037;-56
2021/08/13 03:00:41;;;;;;;8.15;7.35;;;21.90;72.10;;;;;;10421548;28;20033;-56
2021/08/13 03:05:51;;;;;;;8.18;7.38;;;21.90;72.20;;;;;;10419902;28;20038;-56
2021/08/13 03:10:52;;;;;;;8.23;7.38;;;21.90;72.10;;;;;;10404083;28;20508;-56
2021/08/13 03:15:54;;;;;;;7.82;7.05;;;21.90;72.00;;;;;;10420674;28;20033;-56
2021/08/13 03:20:56;;;;;;;10.55;7.78;;;21.90;72.00;;;;;;10428386;28;20029;-56
2021/08/13 03:25:57;;;;;;;8.93;8.02;;;21.90;72.00;;;;;;10435428;28;20056;-56
2021/08/13 03:30:58;;;;;;;8.35;7.55;;;21.90;72.00;;;;;;10418898;28;20037;-56
2021/08/13 03:35:59;;;;;;;9.00;7.10;;;21.90;72.00;;;;;;10419945;28;20116;-55
2021/08/13 03:41:00;;;;;;;7.85;7.05;;;21.90;72.00;;;;;;10429256;28;20498;-56
2021/08/13 03:46:01;;;;;;;8.63;7.82;;;21.90;72.00;;;;;;10419196;28;20034;-56
2021/08/13 03:51:01;;;;;;;7.95;7.20;;;21.90;71.90;;;;;;10417600;28;20492;-56
2021/08/13 03:56:03;;;;;;;8.35;6.93;;;21.90;71.90;;;;;;10434474;28;20041;-56
2021/08/13 04:01:06;;;;;;;9.35;6.93;;;21.90;71.90;;;;;;10418823;28;20109;-56
2021/08/13 04:06:07;;;;;;;8.32;7.53;;;21.90;71.70;;;;;;10418457;28;20096;-56
2021/08/13 04:11:07;;;;;;;8.05;7.25;;;21.80;71.70;;;;;;10433226;28;20029;-56
2021/08/13 04:16:08;;;;;;;8.38;6.78;;;21.80;71.70;;;;;;10416360;28;20029;-56
2021/08/13 04:21:09;;;;;;;7.75;6.95;;;21.80;71.60;;;;;;10423080;28;20520;-55
2021/08/13 04:26:10;;;;;;;8.80;7.90;;;21.80;71.60;;;;;;10417604;28;20046;-55
2021/08/13 04:31:10;;;;;;;7.38;6.55;;;21.80;71.50;;;;;;10417178;28;20087;-56
2021/08/13 04:36:12;;;;;;;7.85;7.05;;;21.80;71.50;;;;;;10415823;28;20533;-56
2021/08/13 04:41:13;;;;;;;6.68;6.07;;;21.80;71.50;;;;;;10411211;28;20053;-56
2021/08/13 04:46:13;;;;;;;9.57;7.32;;;21.80;71.50;;;;;;10416868;28;20470;-56
2021/08/13 04:51:14;;;;;;;7.90;7.10;;;21.80;71.40;;;;;;10416649;28;20037;-56
2021/08/13 04:56:15;;;;;;;7.50;6.70;;;21.80;71.40;;;;;;10417458;28;20474;-56
2021/08/13 05:01:16;;;;;;;8.43;6.82;;;21.80;71.40;;;;;;10416040;28;20105;-57
2021/08/13 05:06:18;;;;;;;11.07;7.13;;;21.80;72.30;;;;;;10416253;28;20080;-58
2021/08/13 05:11:19;;;;;;;10.73;7.40;;;21.80;72.90;;;;;;10429440;28;20033;-55
2021/08/13 05:16:20;;;;;;;10.93;7.13;;;21.90;72.90;;;;;;10414252;28;20482;-58
2021/08/13 05:21:20;;;;;;;10.98;7.18;;;21.90;73.10;;;;;;10415550;28;20036;-57
2021/08/13 05:26:21;;;;;;;8.40;7.18;;;22.00;73.60;;;;;;10414682;28;20033;-58
2021/08/13 05:31:22;;;;;;;12.32;7.43;;;22.00;73.50;;;;;;10414065;28;20022;-57
2021/08/13 05:36:22;;;;;;;9.68;7.85;;;22.00;73.40;;;;;;10414999;28;20109;-56
2021/08/13 05:41:23;;;;;;;12.88;8.00;;;22.00;73.60;;;;;;10409827;28;20085;-57
2021/08/13 05:46:24;;;;;;;10.63;7.38;;;22.00;73.40;;;;;;10413817;28;20167;-56
2021/08/13 05:51:24;;;;;;;8.35;6.72;;;22.00;72.90;;;;;;10406336;28;20022;-57
2021/08/13 05:56:25;;;;;;;11.80;7.78;;;22.00;73.10;;;;;;10399022;28;20062;-57
2021/08/13 06:01:27;;;;;;;20.05;8.05;;;21.90;73.20;;;;;;10412860;28;20060;-56
2021/08/13 06:06:28;;;;;;;13.77;8.23;;;22.00;73.10;;;;;;10412750;28;20063;-57
2021/08/13 06:11:29;;;;;;;18.38;8.93;;;22.00;74.00;;;;;;10415688;28;20029;-58
2021/08/13 06:16:29;;;;;;;26.05;8.90;;;22.10;73.90;;;;;;10396730;28;20111;-57
2021/08/13 06:21:31;;;;;;;18.83;9.18;;;22.00;73.30;;;;;;10418939;28;20029;-57
2021/08/13 06:26:31;;;;;;;26.38;9.88;;;22.00;73.20;;;;;;10412991;28;20029;-53
2021/08/13 06:31:32;;;;;;;26.88;10.20;;;22.10;73.60;;;;;;10409359;28;20104;-55
2021/08/13 06:36:33;;;;;;;27.45;8.52;;;22.10;73.40;;;;;;10411107;28;20121;-57
2021/08/13 06:41:34;;;;;;;18.23;9.63;;;22.10;73.40;;;;;;10427504;28;20054;-57
2021/08/13 06:46:34;;;;;;;20.77;9.88;;;22.10;73.30;;;;;;10411463;28;20447;-57
2021/08/13 06:51:35;;;;;;;19.35;8.85;;;22.10;73.50;;;;;;10413530;28;20030;-56
2021/08/13 06:56:36;;;;;;;16.35;8.82;;;22.10;73.50;;;;;;10413292;28;20026;-57
2021/08/13 07:01:36;;;;;;;16.75;7.90;;;22.10;73.40;;;;;;10413361;28;20072;-54
2021/08/13 07:06:37;;;;;;;12.63;7.50;;;22.10;73.40;;;;;;10413307;28;20571;-55
2021/08/13 07:11:38;;;;;;;13.90;8.30;;;22.10;73.20;;;;;;10412870;28;20233;-57
2021/08/13 07:16:39;;;;;;;13.90;7.25;;;22.20;73.30;;;;;;10413392;28;20385;-57
2021/08/13 07:21:40;;;;;;;15.18;8.13;;;22.20;73.50;;;;;;10397127;28;20080;-54
2021/08/13 07:26:41;;;;;;;15.73;8.07;;;22.10;73.40;;;;;;10417313;28;20095;-54
2021/08/13 07:31:42;;;;;;;13.55;7.40;;;22.20;73.60;;;;;;10420065;28;20033;-52
2021/08/13 07:36:43;;;;;;;12.18;6.28;;;22.20;73.60;;;;;;10420263;28;20080;-55
2021/08/13 07:41:43;;;;;;;10.30;6.35;;;22.10;73.40;;;;;;10421827;28;20493;-54
2021/08/13 07:46:44;;;;;;;8.55;6.18;;;22.10;73.00;;;;;;10419754;28;20037;-54
2021/08/13 07:51:45;;;;;;;10.00;6.47;;;22.10;72.90;;;;;;10419311;28;20026;-54
2021/08/13 07:56:46;;;;;;;10.20;6.07;;;22.10;72.80;;;;;;10434920;28;20435;-53
2021/08/13 08:01:47;;;;;;;11.23;6.18;;;22.10;72.80;;;;;;10419457;28;20389;-55
2021/08/13 08:06:48;;;;;;;10.10;6.28;;;22.10;72.70;;;;;;10419309;28;20025;-55
2021/08/13 08:11:49;;;;;;;8.90;5.95;;;22.00;72.70;;;;;;10419282;28;20028;-55
2021/08/13 08:16:50;;;;;;;8.48;5.07;;;22.00;72.70;;;;;;10420636;28;20087;-54
2021/08/13 08:21:51;;;;;;;7.50;5.32;;;22.10;72.80;;;;;;10419558;28;20104;-55
2021/08/13 08:26:52;;;;;;;8.63;5.88;;;22.10;72.80;;;;;;10417834;28;20036;-55
2021/08/13 08:31:53;;;;;;;8.52;5.97;;;22.10;73.00;;;;;;10418403;28;20025;-55
2021/08/13 08:36:53;;;;;;;7.95;4.93;;;22.10;73.20;;;;;;10417349;28;20030;-54
2021/08/13 08:41:54;;;;;;;9.80;4.85;;;22.10;72.80;;;;;;10417537;28;20490;-55
2021/08/13 08:46:56;;;;;;;13.13;5.95;;;22.10;73.20;;;;;;10414729;28;20033;-54
2021/08/13 08:51:58;;;;;;;9.82;5.40;;;22.20;73.60;;;;;;10403018;28;20049;-51
2021/08/13 08:56:59;;;;;;;13.45;5.85;;;22.20;73.50;;;;;;10394102;28;20144;-53
2021/08/13 09:02:00;;;;;;;9.38;5.85;;;22.20;73.60;;;;;;10402357;28;20029;-53
2021/08/13 09:07:01;;;;;;;8.63;5.80;;;22.20;73.50;;;;;;10430789;28;20375;-50
2021/08/13 09:12:03;;;;;;;11.25;5.20;;;22.20;73.50;;;;;;10430817;28;20069;-51
2021/08/13 09:17:04;;;;;;;9.50;5.20;;;22.30;73.90;;;;;;10434095;28;20110;-52
2021/08/13 09:22:15;;;;;;;12.00;5.65;;;22.30;73.80;;;;;;10415414;28;20439;-51
2021/08/13 09:27:22;;;;;;;12.10;5.32;;;22.30;74.00;;;;;;10414810;28;20033;-53
2021/08/13 09:32:26;;;;;;;10.70;5.15;;;22.30;74.00;;;;;;10413613;28;20037;-51
2021/08/13 09:37:27;;;;;;;8.75;5.45;;;22.40;74.00;;;;;;10415051;28;20025;-52
2021/08/13 09:42:35;;;;;;;15.18;6.05;;;22.40;73.80;;;;;;10414585;28;20583;-53
2021/08/13 09:47:47;;;;;;;12.93;5.17;;;22.40;74.00;;;;;;10414737;28;20037;-54
2021/08/13 09:53:14;;;;;;;12.93;6.28;;;22.40;74.00;;;;;;10414333;28;20477;-54
2021/08/13 09:58:26;;;;;;;12.00;5.70;;;22.40;73.90;;;;;;10424488;28;20032;-54
2021/08/13 10:03:26;;;;;;;12.40;4.75;;;22.40;73.90;;;;;;10413171;28;20033;-54
2021/08/13 10:08:44;;;;;;;9.40;5.18;;;22.40;73.80;;;;;;10413998;28;20025;-54
2021/08/13 10:13:45;;;;;;;13.75;4.90;;;22.50;73.90;;;;;;10410569;28;20029;-54
2021/08/13 10:18:46;;;;;;;9.18;4.85;;;22.50;74.00;;;;;;10407221;28;20087;-54
2021/08/13 10:23:47;;;;;;;9.02;4.80;;;22.50;74.00;;;;;;10411702;28;20083;-55
2021/08/13 10:28:50;;;;;;;19.13;5.30;;;22.50;74.10;;;;;;10410924;28;20025;-54
2021/08/13 10:33:52;;;;;;;18.80;5.50;;;22.50;73.90;;;;;;10411559;28;20027;-54
2021/08/13 10:38:53;;;;;;;10.50;4.85;;;22.50;73.80;;;;;;10412236;28;20092;-55
2021/08/13 10:43:58;;;;;;;11.63;5.43;;;22.50;73.90;;;;;;10414076;28;20083;-55
2021/08/13 10:49:00;;;;;;;12.73;5.13;;;22.60;73.80;;;;;;10412834;28;20363;-56
2021/08/13 10:54:10;;;;;;;15.07;5.45;;;22.50;73.60;;;;;;10412027;28;20082;-53
2021/08/13 10:59:11;;;;;;;11.68;4.25;;;22.60;73.80;;;;;;10415091;28;20029;-53
2021/08/13 11:04:12;;;;;;;7.38;4.65;;;22.60;74.00;;;;;;10420557;28;20087;-48
2021/08/13 11:09:27;;;;;;;12.07;4.15;;;22.60;73.60;;;;;;10421165;28;20494;-54
2021/08/13 11:14:30;;;;;;;8.98;3.88;;;22.70;73.60;;;;;;10402107;28;20029;-53
2021/08/13 11:19:57;;;;;;;10.52;4.57;;;22.60;73.40;;;;;;10424749;28;20037;-55
2021/08/13 11:24:58;;;;;;;12.90;4.40;;;22.70;73.00;;;;;;10435726;28;20033;-54
2021/08/13 11:29:59;;;;;;;5.47;3.40;;;22.70;73.00;;;;;;10420139;28;20039;-55
2021/08/13 11:35:09;;;;;;;10.45;4.50;;;22.70;73.10;;;;;;10420187;28;20116;-54
2021/08/13 11:40:12;;;;;;;6.32;4.03;;;22.70;73.00;;;;;;10419016;28;20041;-51
2021/08/13 11:45:14;;;;;;;7.82;4.75;;;22.70;72.70;;;;;;10418929;28;20128;-50
2021/08/13 11:50:17;;;;;;;8.48;4.03;;;22.70;72.50;;;;;;10405991;28;20052;-51
2021/08/13 11:55:21;;;;;;;8.13;4.50;;;22.70;72.50;;;;;;10418563;28;20064;-55
2021/08/13 12:00:25;;;;;;;7.63;4.03;;;22.60;71.90;;;;;;10417437;28;20033;-57
2021/08/13 12:05:34;;;;;;;5.63;3.65;;;22.70;72.10;;;;;;10418502;28;20078;-56
2021/08/13 12:10:36;;;;;;;4.82;3.22;;;22.70;71.90;;;;;;10417997;28;20020;-56
2021/08/13 12:15:39;;;;;;;5.35;3.80;;;22.70;71.90;;;;;;10417596;28;20488;-56
2021/08/13 12:20:48;;;;;;;7.32;3.67;;;22.70;71.80;;;;;;10421236;28;20047;-54
2021/08/13 12:25:49;;;;;;;8.80;3.50;;;22.70;71.60;;;;;;10417722;28;20470;-55
2021/08/13 12:30:50;;;;;;;10.30;3.25;;;22.70;71.80;;;;;;10417464;28;20029;-55
2021/08/13 12:35:50;;;;;;;11.10;3.78;;;22.70;71.80;;;;;;10417707;28;20041;-56
2021/08/13 12:40:53;;;;;;;6.68;3.65;;;22.70;72.00;;;;;;10416713;28;20080;-55
2021/08/13 12:45:55;;;;;;;9.85;3.33;;;22.70;71.80;;;;;;10417040;28;20164;-56
2021/08/13 12:51:00;;;;;;;8.38;4.43;;;22.70;72.00;;;;;;10416016;28;20025;-55
2021/08/13 12:56:02;;;;;;;10.15;3.10;;;22.70;71.50;;;;;;10416329;28;20045;-56
2021/08/13 13:01:26;;;;;;;12.77;3.92;;;22.70;71.50;;;;;;10416817;28;20038;-56
2021/08/13 13:06:26;;;;;;;13.07;3.53;;;22.70;71.20;;;;;;10416627;28;20068;-57
2021/08/13 13:11:31;;;;;;;25.00;5.45;;;22.70;71.30;;;;;;10416470;28;20028;-57
2021/08/13 13:16:33;;;;;;;19.80;4.57;;;22.70;71.40;;;;;;10416285;28;20030;-54
2021/08/13 13:21:34;;;;;;;14.77;4.53;;;22.70;71.40;;;;;;10420249;28;20456;-56
2021/08/13 13:26:34;;;;;;;11.23;3.53;;;22.70;71.50;;;;;;10415037;28;20069;-56
2021/08/13 13:31:42;;;;;;;19.98;4.13;;;22.70;71.30;;;;;;10416476;28;20029;-57
2021/08/13 13:36:42;;;;;;;9.43;3.15;;;22.70;71.20;;;;;;10400517;28;20508;-56
2021/08/13 13:41:44;;;;;;;12.70;3.45;;;22.70;71.20;;;;;;10408306;28;20041;-56
2021/08/13 13:46:45;;;;;;;17.52;4.50;;;22.70;71.40;;;;;;10414707;28;20037;-55
2021/08/13 13:51:45;;;;;;;9.40;3.78;;;22.70;71.00;;;;;;10430198;28;20104;-55
2021/08/13 13:56:46;;;;;;;12.82;4.00;;;22.70;71.10;;;;;;10414641;28;20033;-55
2021/08/13 14:01:47;;;;;;;13.73;4.60;;;22.70;71.20;;;;;;10414350;28;20130;-55
2021/08/13 14:06:47;;;;;;;13.35;4.45;;;22.70;71.10;;;;;;10414566;28;20188;-54
2021/08/13 14:11:48;;;;;;;8.88;3.78;;;22.70;71.70;;;;;;10413928;28;20065;-54
2021/08/13 14:16:49;;;;;;;11.07;3.50;;;22.70;71.40;;;;;;10415226;28;20087;-54
2021/08/13 14:21:50;;;;;;;11.02;3.75;;;22.70;71.60;;;;;;10419907;28;20079;-55
2021/08/13 14:26:50;;;;;;;8.43;3.58;;;22.70;72.10;;;;;;10414206;28;20053;-55
2021/08/13 14:31:51;;;;;;;9.35;3.78;;;22.80;72.00;;;;;;10413494;28;20057;-55
2021/08/13 14:36:52;;;;;;;12.27;3.45;;;22.80;71.90;;;;;;10418697;28;20029;-56
2021/08/13 14:41:53;;;;;;;8.35;3.05;;;22.80;71.40;;;;;;10421885;28;20087;-56
2021/08/13 14:46:53;;;;;;;11.00;4.30;;;22.70;71.60;;;;;;10421637;28;20037;-55
2021/08/13 14:51:54;;;;;;;8.23;3.45;;;22.80;71.80;;;;;;10421777;28;20037;-55
2021/08/13 14:56:55;;;;;;;7.20;3.67;;;22.70;71.60;;;;;;10421647;28;20026;-56
2021/08/13 15:01:57;;;;;;;14.85;3.88;;;22.70;71.40;;;;;;10421157;28;20123;-57
2021/08/13 15:06:57;;;;;;;7.30;3.22;;;22.70;71.20;;;;;;10421127;28;20025;-56
2021/08/13 15:11:58;;;;;;;10.60;3.67;;;22.70;70.90;;;;;;10420411;28;20051;-56
2021/08/13 15:16:59;;;;;;;7.95;2.80;;;22.70;70.80;;;;;;10416486;28;20024;-57
2021/08/13 15:22:00;;;;;;;10.60;3.38;;;22.70;71.00;;;;;;10419085;28;20553;-56
2021/08/13 15:27:01;;;;;;;16.17;4.20;;;22.70;70.80;;;;;;10420373;28;20029;-56
2021/08/13 15:32:02;;;;;;;10.88;3.40;;;22.70;70.80;;;;;;10419980;28;20088;-56
2021/08/13 15:37:03;;;;;;;10.07;3.13;;;22.70;70.10;;;;;;10435615;28;20055;-56
2021/08/13 15:42:04;;;;;;;16.48;4.47;;;22.70;69.60;;;;;;10415953;28;20084;-54
2021/08/13 15:47:05;;;;;;;13.48;4.00;;;22.80;69.10;;;;;;10415709;28;20026;-51
2021/08/13 15:52:07;;;;;;;12.60;4.68;;;22.80;68.90;;;;;;10418323;28;20075;-53
2021/08/13 15:57:07;;;;;;;12.55;4.43;;;22.80;68.30;;;;;;10419502;28;20026;-54
2021/08/13 16:02:09;;;;;;;13.70;5.00;;;22.80;70.50;;;;;;10419901;28;20072;-54
2021/08/13 16:07:09;;;;;;;16.65;4.13;;;22.90;68.80;;;;;;10416878;28;20087;-55
2021/08/13 16:12:10;;;;;;;10.13;3.90;;;22.90;66.80;;;;;;10401101;28;20152;-54
2021/08/13 16:17:11;;;;;;;12.13;4.38;;;22.90;66.70;;;;;;10422344;28;20028;-56
2021/08/13 16:22:13;;;;;;;13.02;4.05;;;22.90;67.00;;;;;;10423413;28;20113;-55
2021/08/13 16:27:14;;;;;;;13.77;4.68;;;23.00;66.80;;;;;;10418019;28;20524;-54
2021/08/13 16:32:14;;;;;;;13.75;4.25;;;23.10;66.50;;;;;;10417011;28;20033;-57
2021/08/13 16:37:15;;;;;;;8.38;4.03;;;23.10;66.90;;;;;;10417594;28;20113;-56
2021/08/13 16:42:15;;;;;;;10.55;3.75;;;23.00;66.70;;;;;;10417197;28;20460;-56
2021/08/13 16:47:16;;;;;;;10.35;4.38;;;23.00;66.90;;;;;;10426657;28;20136;-56
2021/08/13 16:52:17;;;;;;;13.95;3.30;;;23.00;66.20;;;;;;10416634;28;20117;-56
2021/08/13 16:57:18;;;;;;;12.32;3.75;;;23.00;65.90;;;;;;10416011;28;20389;-55
2021/08/13 17:02:18;;;;;;;13.10;3.88;;;22.90;66.30;;;;;;10415817;28;20037;-56
2021/08/13 17:07:19;;;;;;;10.43;3.67;;;22.90;66.40;;;;;;10414234;28;20172;-55
2021/08/13 17:12:21;;;;;;;9.70;3.90;;;22.90;66.30;;;;;;10412123;28;20497;-56
2021/08/13 17:17:22;;;;;;;6.68;3.38;;;22.80;66.40;;;;;;10404536;28;20384;-55
2021/08/13 17:22:23;;;;;;;6.18;3.13;;;22.80;66.30;;;;;;10416272;28;20030;-55
2021/08/13 17:27:23;;;;;;;7.72;3.10;;;22.80;66.30;;;;;;10414485;28;20048;-56
2021/08/13 17:32:24;;;;;;;8.15;3.38;;;22.80;66.30;;;;;;10410205;28;20485;-56
2021/08/13 17:37:26;;;;;;;7.45;3.53;;;22.70;66.10;;;;;;10415551;28;20021;-55
2021/08/13 17:42:27;;;;;;;8.27;3.58;;;22.70;65.90;;;;;;10408953;28;20057;-56
2021/08/13 17:47:27;;;;;;;6.97;2.78;;;22.70;65.90;;;;;;10413659;28;20121;-56
2021/08/13 17:52:28;;;;;;;6.88;2.88;;;22.70;66.00;;;;;;10409564;28;20029;-55
2021/08/13 17:57:30;;;;;;;5.68;2.90;;;22.70;65.60;;;;;;10413752;28;20124;-56
2021/08/13 18:02:31;;;;;;;6.32;3.13;;;22.70;65.50;;;;;;10414596;28;20108;-55
2021/08/13 18:07:34;;;;;;;7.97;2.92;;;22.70;65.50;;;;;;10414682;28;20018;-55
2021/08/13 18:12:35;;;;;;;6.75;3.17;;;22.70;65.50;;;;;;10413893;28;20037;-56
2021/08/13 18:17:35;;;;;;;6.75;3.58;;;22.70;65.60;;;;;;10417344;28;20025;-57
2021/08/13 18:22:37;;;;;;;11.13;3.50;;;22.70;65.60;;;;;;10414343;28;20429;-55
2021/08/13 18:27:38;;;;;;;6.38;2.90;;;22.60;65.40;;;;;;10413259;28;20132;-54
2021/08/13 18:32:39;;;;;;;5.57;2.78;;;22.60;65.90;;;;;;10412352;28;20124;-56
2021/08/13 18:37:40;;;;;;;8.18;3.20;;;22.60;65.60;;;;;;10410854;28;20113;-54
2021/08/13 18:42:40;;;;;;;5.72;2.88;;;22.60;65.40;;;;;;10411950;28;20059;-53
2021/08/13 18:47:41;;;;;;;5.28;3.65;;;22.60;65.50;;;;;;10412541;28;20061;-53
2021/08/13 18:52:42;;;;;;;6.82;3.22;;;22.60;65.30;;;;;;10412942;28;20033;-54
2021/08/13 18:57:43;;;;;;;7.72;3.92;;;22.60;65.20;;;;;;10412920;28;20021;-52
2021/08/13 19:02:44;;;;;;;8.20;4.47;;;22.60;65.20;;;;;;10411503;28;20029;-54
2021/08/13 19:07:44;;;;;;;9.40;4.95;;;22.60;65.60;;;;;;10413416;28;20067;-54
2021/08/13 19:12:45;;;;;;;7.03;3.97;;;22.60;65.80;;;;;;10413813;28;20580;-53
2021/08/13 19:17:46;;;;;;;7.57;4.05;;;22.50;66.10;;;;;;10415854;28;20079;-52
2021/08/13 19:22:47;;;;;;;9.77;4.22;;;22.60;66.30;;;;;;10391963;28;20437;-52
2021/08/13 19:27:48;;;;;;;11.10;4.40;;;22.50;65.80;;;;;;10251332;28;97899;-52
2021/08/13 19:32:49;;;;;;;7.20;4.10;;;22.60;66.20;;;;;;10360469;28;20056;-53
2021/08/13 19:37:50;;;;;;;8.90;5.32;;;22.50;65.50;;;;;;10336609;28;20467;-54
2021/08/13 19:42:50;;;;;;;6.20;4.13;;;22.50;65.80;;;;;;10341660;28;20042;-53
2021/08/13 19:47:51;;;;;;;8.65;4.30;;;22.50;65.80;;;;;;10346497;28;20069;-54
2021/08/13 19:52:52;;;;;;;7.90;4.35;;;22.50;65.80;;;;;;10363380;28;20058;-54
2021/08/13 19:57:52;;;;;;;9.10;4.10;;;22.50;66.20;;;;;;10354456;28;20116;-53
2021/08/13 20:02:54;;;;;;;4.93;3.42;;;22.50;66.50;;;;;;10355739;28;20053;-53
2021/08/13 20:07:54;;;;;;;6.53;3.75;;;22.50;66.60;;;;;;10345954;28;20038;-54
2021/08/13 20:12:55;;;;;;;8.15;3.53;;;22.50;66.80;;;;;;10355917;28;20087;-52
2021/08/13 20:17:56;;;;;;;9.45;4.40;;;22.50;66.70;;;;;;10351294;28;20543;-52
2021/08/13 20:22:56;;;;;;;6.80;4.18;;;22.50;66.70;;;;;;10352102;28;20033;-54
2021/08/13 20:27:57;;;;;;;6.47;3.63;;;22.50;66.90;;;;;;10351744;28;20110;-54
2021/08/13 20:33:00;;;;;;;8.50;4.05;;;22.50;67.00;;;;;;10350335;28;20045;-53
2021/08/13 20:38:01;;;;;;;8.50;4.20;;;22.50;67.00;;;;;;10345555;28;20395;-54
2021/08/13 20:43:02;;;;;;;6.75;3.95;;;22.50;67.20;;;;;;10336555;28;20081;-54
2021/08/13 20:48:03;;;;;;;7.38;4.00;;;22.50;67.00;;;;;;10339164;28;20022;-54
2021/08/13 20:53:04;;;;;;;7.03;3.75;;;22.40;66.90;;;;;;10348530;28;20089;-52
2021/08/13 20:58:05;;;;;;;6.43;3.42;;;22.40;66.90;;;;;;10350533;28;20033;-53
2021/08/13 21:03:06;;;;;;;6.28;3.80;;;22.40;66.90;;;;;;10363873;28;20121;-54
2021/08/13 21:08:07;;;;;;;5.05;3.45;;;22.40;67.00;;;;;;10335872;28;20382;-53
2021/08/13 21:13:08;;;;;;;6.88;3.33;;;22.40;67.00;;;;;;10342492;28;20032;-51
2021/08/13 21:18:08;;;;;;;6.00;3.20;;;22.40;67.00;;;;;;10369592;28;20044;-53
2021/08/13 21:23:09;;;;;;;5.70;3.40;;;22.40;67.00;;;;;;10371888;28;20471;-53
2021/08/13 21:28:10;;;;;;;6.57;3.70;;;22.40;67.00;;;;;;10373633;28;20026;-54
2021/08/13 21:33:10;;;;;;;5.93;3.40;;;22.40;67.00;;;;;;10375349;28;20041;-53
2021/08/13 21:38:11;;;;;;;6.20;3.20;;;22.40;67.00;;;;;;10368456;28;20038;-53
2021/08/13 21:43:12;;;;;;;6.38;3.65;;;22.40;67.00;;;;;;10334186;28;20088;-54
2021/08/13 21:48:12;;;;;;;6.68;3.70;;;22.40;67.00;;;;;;10334523;28;20089;-54
2021/08/13 21:53:13;;;;;;;7.80;3.47;;;22.30;67.00;;;;;;10334077;28;20041;-53
2021/08/13 21:58:14;;;;;;;6.53;3.40;;;22.30;67.10;;;;;;10340053;28;20053;-54
2021/08/13 22:03:14;;;;;;;6.50;3.15;;;22.30;67.00;;;;;;10358016;28;20027;-54
2021/08/13 22:08:15;;;;;;;4.90;2.85;;;22.30;67.10;;;;;;10355023;28;20064;-54
2021/08/13 22:13:16;;;;;;;6.20;3.85;;;22.30;67.20;;;;;;10373894;28;20030;-53
2021/08/13 22:18:17;;;;;;;6.20;3.60;;;22.30;67.10;;;;;;10355348;28;20120;-52
2021/08/13 22:23:19;;;;;;;5.28;3.33;;;22.30;67.20;;;;;;10332972;28;20030;-53
2021/08/13 22:28:21;;;;;;;5.10;3.63;;;22.30;67.20;;;;;;10334309;28;20045;-54
2021/08/13 22:33:22;;;;;;;4.15;2.88;;;22.30;67.20;;;;;;10356231;28;20076;-55
2021/08/13 22:38:23;;;;;;;4.95;3.08;;;22.30;67.20;;;;;;10360153;28;20095;-54
2021/08/13 22:43:23;;;;;;;5.68;3.60;;;22.30;67.20;;;;;;10364002;28;20092;-54
2021/08/13 22:48:24;;;;;;;5.82;3.65;;;22.20;67.10;;;;;;10359135;28;20036;-54
2021/08/13 22:53:25;;;;;;;5.43;3.65;;;22.20;67.00;;;;;;10352267;28;20062;-54
2021/08/13 22:58:25;;;;;;;5.60;3.47;;;22.20;67.10;;;;;;10367743;28;20068;-54
2021/08/13 23:03:26;;;;;;;5.97;3.15;;;22.20;67.10;;;;;;10381245;28;20064;-54
2021/08/13 23:08:27;;;;;;;7.25;3.85;;;22.20;67.10;;;;;;10364636;28;20029;-55
2021/08/13 23:13:27;;;;;;;6.00;3.30;;;22.20;67.00;;;;;;10378674;28;20057;-54
2021/08/13 23:18:29;;;;;;;7.18;3.58;;;22.20;67.00;;;;;;10365687;28;20098;-54
2021/08/13 23:23:30;;;;;;;5.35;3.33;;;22.20;67.00;;;;;;10339634;28;20077;-55
2021/08/13 23:28:31;;;;;;;7.00;3.78;;;22.20;67.10;;;;;;10339810;28;20045;-55
2021/08/13 23:33:31;;;;;;;5.32;3.55;;;22.20;67.10;;;;;;10339807;28;20045;-55
2021/08/13 23:38:32;;;;;;;5.40;3.30;;;22.20;67.10;;;;;;10339319;28;20022;-54
2021/08/13 23:43:33;;;;;;;5.03;2.90;;;22.20;67.00;;;;;;10338849;28;20045;-54
2021/08/13 23:48:33;;;;;;;5.05;3.38;;;22.20;67.00;;;;;;10342756;28;20135;-55
2021/08/13 23:53:34;;;;;;;4.25;3.15;;;22.20;66.90;;;;;;10360295;28;20056;-54
2021/08/13 23:58:35;;;;;;;7.00;3.50;;;22.20;67.00;;;;;;10360673;28;20069;-53
